createdAt,value
2023-04-29T00:01:15.946Z,12.95
2023-04-29T00:03:42.915Z,12.52
2023-04-29T00:06:11.601Z,12.45
2023-04-29T00:08:38.424Z,13.70
2023-04-29T00:11:05.362Z,11.63
2023-04-29T00:13:32.218Z,13.10
2023-04-29T00:15:59.091Z,12.95
2023-04-29T00:18:25.816Z,12.13
2023-04-29T00:20:52.522Z,12.18
2023-04-29T00:23:19.325Z,12.25
2023-04-29T00:25:46.070Z,11.95
2023-04-29T00:28:13.175Z,11.55
2023-04-29T00:30:39.935Z,11.23
2023-04-29T00:33:06.831Z,11.48
2023-04-29T00:35:34.544Z,11.38
2023-04-29T00:38:01.303Z,12.35
2023-04-29T00:40:28.877Z,11.77
2023-04-29T00:42:55.633Z,12.40
2023-04-29T00:45:22.421Z,12.95
2023-04-29T00:47:49.138Z,11.20
2023-04-29T00:50:16.342Z,11.80
2023-04-29T00:52:44.522Z,10.55
2023-04-29T00:55:13.093Z,11.13
2023-04-29T00:57:39.998Z,11.02
2023-04-29T01:00:07.559Z,10.85
2023-04-29T01:02:35.239Z,11.10
2023-04-29T01:05:02.202Z,10.95
2023-04-29T01:07:54.536Z,10.82
2023-04-29T01:13:02.005Z,10.13
2023-04-29T01:15:38.003Z,11.35
2023-04-29T01:18:10.792Z,9.20
2023-04-29T01:20:38.728Z,10.98
2023-04-29T01:23:05.638Z,11.20
2023-04-29T01:25:32.397Z,11.35
2023-04-29T01:28:37.152Z,11.75
2023-04-29T01:31:14.744Z,11.73
2023-04-29T01:33:44.837Z,11.57
2023-04-29T01:36:40.937Z,11.90
2023-04-29T01:39:21.275Z,11.77
2023-04-29T01:42:02.516Z,11.55
2023-04-29T01:44:31.727Z,10.43
2023-04-29T01:47:01.291Z,10.43
2023-04-29T01:49:28.973Z,9.40
2023-04-29T01:51:56.145Z,8.70
2023-04-29T01:54:22.900Z,9.13
2023-04-29T01:56:50.423Z,8.50
2023-04-29T01:59:17.338Z,8.93
2023-04-29T02:01:44.058Z,9.07
2023-04-29T02:04:10.896Z,8.93
2023-04-29T02:06:37.744Z,9.50
2023-04-29T02:09:04.777Z,9.82
2023-04-29T02:11:31.609Z,10.00
2023-04-29T02:13:58.397Z,9.80
2023-04-29T02:16:25.180Z,9.23
2023-04-29T02:18:51.993Z,9.88
2023-04-29T02:21:18.910Z,9.75
2023-04-29T02:23:45.709Z,9.50
2023-04-29T02:26:14.021Z,8.82
2023-04-29T02:28:40.849Z,9.80
2023-04-29T02:31:07.581Z,9.73
2023-04-29T02:33:34.871Z,9.38
2023-04-29T02:36:01.673Z,9.40
2023-04-29T02:38:28.507Z,9.73
2023-04-29T02:40:55.308Z,9.38
2023-04-29T02:43:22.323Z,9.85
2023-04-29T02:45:49.137Z,9.23
2023-04-29T02:48:16.028Z,9.77
2023-04-29T02:50:42.841Z,11.07
2023-04-29T02:53:09.583Z,10.40
2023-04-29T02:55:36.590Z,10.38
2023-04-29T02:58:04.286Z,11.27
2023-04-29T03:00:31.048Z,11.57
2023-04-29T03:02:58.288Z,11.38
2023-04-29T03:05:25.175Z,10.98
2023-04-29T03:07:52.036Z,11.50
2023-04-29T03:10:19.219Z,10.38
2023-04-29T03:12:46.049Z,10.45
2023-04-29T03:15:13.410Z,8.93
2023-04-29T03:17:40.279Z,9.13
2023-04-29T03:20:07.984Z,9.80
2023-04-29T03:22:35.003Z,8.90
2023-04-29T03:25:01.957Z,9.52
2023-04-29T03:27:29.067Z,9.07
2023-04-29T03:29:55.812Z,9.90
2023-04-29T03:32:22.737Z,10.15
2023-04-29T03:34:49.588Z,10.07
2023-04-29T03:37:16.647Z,9.98
2023-04-29T03:39:43.427Z,9.55
2023-04-29T03:42:10.620Z,9.90
2023-04-29T03:44:37.757Z,10.75
2023-04-29T03:47:04.496Z,10.38
2023-04-29T03:49:31.479Z,9.20
2023-04-29T03:51:58.478Z,10.32
2023-04-29T03:54:25.535Z,10.40
2023-04-29T03:56:52.350Z,10.02
2023-04-29T03:59:19.204Z,10.30
2023-04-29T04:01:45.962Z,10.35
2023-04-29T04:04:13.557Z,10.20
2023-04-29T04:06:40.497Z,9.45
2023-04-29T04:09:08.001Z,10.23
2023-04-29T04:11:35.226Z,9.63
2023-04-29T04:14:01.947Z,10.15
2023-04-29T04:16:28.729Z,9.70
2023-04-29T04:18:55.541Z,9.65
2023-04-29T04:21:22.305Z,9.75
2023-04-29T04:23:49.109Z,10.32
2023-04-29T04:26:15.815Z,9.88
2023-04-29T04:28:42.642Z,10.95
2023-04-29T04:31:09.504Z,9.52
2023-04-29T04:33:36.372Z,10.02
2023-04-29T04:36:03.241Z,11.48
2023-04-29T04:38:29.979Z,10.95
2023-04-29T04:40:56.774Z,10.00
2023-04-29T04:43:23.800Z,10.68
2023-04-29T04:45:50.606Z,11.20
2023-04-29T04:48:17.324Z,9.20
2023-04-29T04:50:44.067Z,9.55
2023-04-29T04:53:11.012Z,10.18
2023-04-29T04:55:37.865Z,9.85
2023-04-29T04:58:04.648Z,10.07
2023-04-29T05:00:31.452Z,9.77
2023-04-29T05:02:58.364Z,9.85
2023-04-29T05:05:25.310Z,9.27
2023-04-29T05:07:52.135Z,8.90
2023-04-29T05:10:18.967Z,9.82
2023-04-29T05:12:45.815Z,9.93
2023-04-29T05:15:14.924Z,9.80
2023-04-29T05:17:41.876Z,10.13
2023-04-29T05:20:09.266Z,9.70
2023-04-29T05:22:36.084Z,9.85
2023-04-29T05:25:03.241Z,10.15
2023-04-29T05:27:30.213Z,9.48
2023-04-29T05:29:57.281Z,10.30
2023-04-29T05:32:24.215Z,11.00
2023-04-29T05:34:51.241Z,10.73
2023-04-29T05:37:18.133Z,10.52
2023-04-29T05:39:44.963Z,10.77
2023-04-29T05:42:11.813Z,10.18
2023-04-29T05:44:39.724Z,10.43
2023-04-29T05:47:06.517Z,10.82
2023-04-29T05:49:33.330Z,10.82
2023-04-29T05:52:04.261Z,11.50
2023-04-29T05:54:31.382Z,12.18
2023-04-29T05:56:58.256Z,12.32
2023-04-29T05:59:25.577Z,13.98
2023-04-29T06:01:52.430Z,13.48
2023-04-29T06:04:19.360Z,13.23
2023-04-29T06:06:46.409Z,13.63
2023-04-29T06:09:26.531Z,13.20
2023-04-29T06:11:54.308Z,12.55
2023-04-29T06:14:21.121Z,11.50
2023-04-29T06:16:49.144Z,11.85
2023-04-29T06:19:15.930Z,11.18
2023-04-29T06:21:42.765Z,10.38
2023-04-29T06:24:09.591Z,11.20
2023-04-29T06:26:36.723Z,11.13
2023-04-29T06:29:03.547Z,11.95
2023-04-29T06:31:30.434Z,12.85
2023-04-29T06:33:57.525Z,13.30
2023-04-29T06:36:24.836Z,13.02
2023-04-29T06:38:51.809Z,13.93
2023-04-29T06:41:18.740Z,12.68
2023-04-29T06:43:47.265Z,12.57
2023-04-29T06:46:15.501Z,12.02
2023-04-29T06:48:42.900Z,12.80
2023-04-29T06:51:09.687Z,13.23
2023-04-29T06:53:36.420Z,14.13
2023-04-29T06:56:03.239Z,14.02
2023-04-29T06:58:30.123Z,13.73
2023-04-29T07:00:57.123Z,13.52
2023-04-29T07:03:24.148Z,13.73
2023-04-29T07:05:51.031Z,13.85
2023-04-29T07:08:17.989Z,13.98
2023-04-29T07:10:44.962Z,39.00
2023-04-29T07:13:12.857Z,14.38
2023-04-29T07:15:40.077Z,14.20
2023-04-29T07:18:08.134Z,13.52
2023-04-29T07:20:39.385Z,14.25
2023-04-29T07:23:06.230Z,13.48
2023-04-29T07:25:34.363Z,13.82
2023-04-29T07:28:01.144Z,13.85
2023-04-29T07:30:28.678Z,14.70
2023-04-29T07:32:55.772Z,14.85
2023-04-29T07:35:22.730Z,15.13
2023-04-29T07:37:49.815Z,14.30
2023-04-29T07:40:16.701Z,13.68
2023-04-29T07:42:44.799Z,13.05
2023-04-29T07:45:13.520Z,12.70
2023-04-29T07:47:40.384Z,13.63
2023-04-29T07:50:07.537Z,10.63
2023-04-29T07:52:35.359Z,8.20
2023-04-29T07:55:02.748Z,7.95
2023-04-29T07:57:29.575Z,9.30
2023-04-29T07:59:56.442Z,9.05
2023-04-29T08:02:23.322Z,9.38
2023-04-29T08:04:51.670Z,8.73
2023-04-29T08:07:19.003Z,9.60
2023-04-29T08:09:45.770Z,9.85
2023-04-29T08:12:12.589Z,10.00
2023-04-29T08:14:39.515Z,9.73
2023-04-29T08:17:07.519Z,10.50
2023-04-29T08:19:34.360Z,9.65
2023-04-29T08:22:01.520Z,9.10
2023-04-29T08:24:29.713Z,10.32
2023-04-29T08:26:56.930Z,10.10
2023-04-29T08:29:23.860Z,9.13
2023-04-29T08:31:53.673Z,10.75
2023-04-29T08:34:20.507Z,9.43
2023-04-29T08:36:49.791Z,9.27
2023-04-29T08:39:19.667Z,10.00
2023-04-29T08:41:51.439Z,9.82
2023-04-29T08:44:21.688Z,10.60
2023-04-29T08:46:48.954Z,11.93
2023-04-29T08:49:15.823Z,9.73
2023-04-29T08:51:42.846Z,9.98
2023-04-29T08:54:10.975Z,9.82
2023-04-29T08:56:39.612Z,9.82
2023-04-29T08:59:09.627Z,9.75
2023-04-29T09:01:38.039Z,10.88
2023-04-29T09:04:32.683Z,9.25
2023-04-29T09:07:00.030Z,9.25
2023-04-29T09:09:27.535Z,9.90
2023-04-29T09:11:55.840Z,10.68
2023-04-29T09:14:24.487Z,10.98
2023-04-29T09:16:51.691Z,10.93
2023-04-29T09:19:32.827Z,11.68
2023-04-29T09:22:01.261Z,11.90
2023-04-29T09:24:32.108Z,12.57
2023-04-29T09:27:00.054Z,12.98
2023-04-29T09:29:27.103Z,11.13
2023-04-29T09:31:54.203Z,11.13
2023-04-29T09:34:40.793Z,10.38
2023-04-29T09:37:34.438Z,11.45
2023-04-29T09:40:01.639Z,8.85
2023-04-29T09:42:28.714Z,9.90
2023-04-29T09:44:55.765Z,9.77
2023-04-29T09:47:31.926Z,10.30
2023-04-29T09:50:13.733Z,9.52
2023-04-29T09:52:43.904Z,9.35
2023-04-29T09:55:11.429Z,8.77
2023-04-29T09:57:44.879Z,8.90
2023-04-29T10:00:14.615Z,8.05
2023-04-29T10:02:50.055Z,8.50
2023-04-29T10:05:17.962Z,9.00
2023-04-29T10:07:47.929Z,9.13
2023-04-29T10:10:14.988Z,9.27
2023-04-29T10:12:42.468Z,10.20
2023-04-29T10:15:25.219Z,11.27
2023-04-29T10:18:24.202Z,10.15
2023-04-29T10:20:52.172Z,10.57
2023-04-29T10:23:21.388Z,10.38
2023-04-29T10:25:51.951Z,11.10
2023-04-29T10:28:20.503Z,10.85
2023-04-29T10:30:52.221Z,11.18
2023-04-29T10:35:47.646Z,11.23
2023-04-29T10:38:26.346Z,10.52
2023-04-29T10:40:54.041Z,10.90
2023-04-29T10:43:27.333Z,11.23
2023-04-29T10:46:28.978Z,10.02
2023-04-29T10:49:04.147Z,10.23
2023-04-29T10:51:35.493Z,10.55
2023-04-29T10:54:19.029Z,9.40
2023-04-29T10:56:50.427Z,10.10
2023-04-29T10:59:21.493Z,9.80
2023-04-29T11:01:55.815Z,9.57
2023-04-29T11:04:23.075Z,9.55
2023-04-29T11:06:55.127Z,9.85
2023-04-29T11:09:24.832Z,10.18
2023-04-29T11:12:00.806Z,10.85
2023-04-29T11:14:31.626Z,10.52
2023-04-29T11:17:23.665Z,10.82
2023-04-29T11:19:51.495Z,10.82
2023-04-29T11:22:18.319Z,10.70
2023-04-29T11:24:56.193Z,11.07
2023-04-29T11:27:25.800Z,11.27
2023-04-29T11:29:58.837Z,12.15
2023-04-29T11:32:35.275Z,10.63
2023-04-29T11:35:16.595Z,11.05
2023-04-29T11:37:45.668Z,11.05
2023-04-29T11:40:14.241Z,12.20
2023-04-29T11:42:43.889Z,11.50
2023-04-29T11:45:12.169Z,11.95
2023-04-29T11:47:45.617Z,12.35
2023-04-29T11:50:13.243Z,12.65
2023-04-29T11:52:40.777Z,11.50
2023-04-29T11:55:12.014Z,12.65
2023-04-29T11:57:40.546Z,12.90
2023-04-29T12:00:12.985Z,13.18
2023-04-29T12:02:43.408Z,13.20
2023-04-29T12:05:13.513Z,12.73
2023-04-29T12:07:40.650Z,12.63
2023-04-29T12:10:11.906Z,13.50
2023-04-29T12:12:46.730Z,11.95
2023-04-29T12:15:14.448Z,13.05
2023-04-29T12:17:42.697Z,13.13
2023-04-29T12:20:12.053Z,13.80
2023-04-29T12:22:39.439Z,13.45
2023-04-29T12:25:07.911Z,14.63
2023-04-29T12:27:36.459Z,13.65
2023-04-29T12:30:08.238Z,13.30
2023-04-29T12:32:35.096Z,13.85
2023-04-29T12:35:01.906Z,13.88
2023-04-29T12:37:29.034Z,12.98
2023-04-29T12:39:56.231Z,14.02
2023-04-29T12:42:23.039Z,14.15
2023-04-29T12:44:49.931Z,14.63
2023-04-29T12:47:17.613Z,13.20
2023-04-29T12:49:49.257Z,14.30
2023-04-29T12:54:43.972Z,13.70
2023-04-29T12:57:11.973Z,13.77
2023-04-29T12:59:40.873Z,14.77
2023-04-29T13:02:08.334Z,14.27
2023-04-29T13:04:35.435Z,13.35
2023-04-29T13:09:44.885Z,13.15
2023-04-29T13:12:11.685Z,13.68
2023-04-29T13:14:38.601Z,14.30
2023-04-29T13:17:06.349Z,13.38
2023-04-29T13:19:48.066Z,13.82
2023-04-29T13:22:17.755Z,13.65
2023-04-29T13:24:44.552Z,13.98
2023-04-29T13:27:11.519Z,13.55
2023-04-29T13:29:40.109Z,13.55
2023-04-29T13:32:08.240Z,13.13
2023-04-29T13:34:35.919Z,13.70
2023-04-29T13:37:02.751Z,12.77
2023-04-29T13:39:29.458Z,13.13
2023-04-29T13:41:59.002Z,13.35
2023-04-29T13:44:34.341Z,15.25
2023-04-29T13:47:13.567Z,13.45
2023-04-29T13:50:16.777Z,12.85
2023-04-29T13:55:49.400Z,13.38
2023-04-29T14:05:25.516Z,12.95
2023-04-29T14:07:52.463Z,13.50
2023-04-29T14:10:19.351Z,13.57
2023-04-29T14:12:46.099Z,12.70
2023-04-29T14:15:12.866Z,12.52
2023-04-29T14:17:39.669Z,12.77
2023-04-29T14:20:07.236Z,14.90
2023-04-29T14:22:33.955Z,13.10
2023-04-29T14:25:00.698Z,12.13
2023-04-29T14:27:27.510Z,12.77
2023-04-29T14:29:54.203Z,12.98
2023-04-29T14:32:21.068Z,12.93
2023-04-29T14:34:48.215Z,13.50
2023-04-29T14:37:15.188Z,14.18
2023-04-29T14:39:41.971Z,13.25
2023-04-29T14:42:08.739Z,15.52
2023-04-29T14:44:35.840Z,14.43
2023-04-29T14:47:02.626Z,13.80
2023-04-29T14:49:31.512Z,13.57
2023-04-29T14:51:59.060Z,14.05
2023-04-29T14:54:27.120Z,14.18
2023-04-29T14:56:54.304Z,13.00
2023-04-29T14:59:21.219Z,12.38
2023-04-29T15:01:48.969Z,13.38
2023-04-29T15:04:16.152Z,12.77
2023-04-29T15:06:43.217Z,13.82
2023-04-29T15:09:10.158Z,12.98
2023-04-29T15:11:37.000Z,13.85
2023-04-29T15:14:03.765Z,12.35
2023-04-29T15:16:31.685Z,13.35
2023-04-29T15:18:59.238Z,14.00
2023-04-29T15:21:27.095Z,13.23
2023-04-29T15:23:54.037Z,12.85
2023-04-29T15:26:21.743Z,12.88
2023-04-29T15:28:48.607Z,12.68
2023-04-29T15:31:15.611Z,12.50
2023-04-29T15:33:42.511Z,11.88
2023-04-29T15:36:09.423Z,12.18
2023-04-29T15:38:36.287Z,12.60
2023-04-29T15:41:04.145Z,13.57
2023-04-29T15:43:32.632Z,17.95
2023-04-29T15:46:00.099Z,16.27
2023-04-29T15:48:27.304Z,15.00
2023-04-29T15:50:54.161Z,13.95
2023-04-29T15:53:21.473Z,12.57
2023-04-29T15:55:48.329Z,12.13
2023-04-29T15:58:15.129Z,13.50
2023-04-29T16:00:42.049Z,14.43
2023-04-29T16:03:09.017Z,13.70
2023-04-29T16:05:37.256Z,14.25
2023-04-29T16:08:04.481Z,12.77
2023-04-29T16:10:31.397Z,13.57
2023-04-29T16:12:58.212Z,13.77
2023-04-29T16:15:25.326Z,13.43
2023-04-29T16:17:52.418Z,14.55
2023-04-29T16:20:20.687Z,13.27
2023-04-29T16:22:47.727Z,14.60
2023-04-29T16:25:14.816Z,14.73
2023-04-29T16:27:41.909Z,14.82
2023-04-29T16:30:09.262Z,14.25
2023-04-29T16:32:36.387Z,13.82
2023-04-29T16:35:03.447Z,14.30
2023-04-29T16:37:30.507Z,15.35
2023-04-29T16:39:57.362Z,14.70
2023-04-29T16:42:24.262Z,14.52
2023-04-29T16:44:51.589Z,14.80
2023-04-29T16:47:20.305Z,14.40
2023-04-29T16:49:47.453Z,15.55
2023-04-29T16:52:14.486Z,14.75
2023-04-29T16:54:41.767Z,14.05
2023-04-29T16:57:08.540Z,13.73
2023-04-29T16:59:35.374Z,13.80
2023-04-29T17:02:03.055Z,13.48
2023-04-29T17:04:31.437Z,13.50
2023-04-29T17:07:01.586Z,13.43
2023-04-29T17:09:28.563Z,13.85
2023-04-29T17:11:55.359Z,14.30
2023-04-29T17:14:22.496Z,13.63
2023-04-29T17:16:49.483Z,13.70
2023-04-29T17:19:16.652Z,12.70
2023-04-29T17:21:43.503Z,12.57
2023-04-29T17:24:10.343Z,12.10
2023-04-29T17:26:37.094Z,12.18
2023-04-29T17:29:04.586Z,12.48
2023-04-29T17:31:45.020Z,13.85
2023-04-29T17:34:18.841Z,12.25
2023-04-29T17:36:47.454Z,12.68
2023-04-29T17:39:14.461Z,12.50
2023-04-29T17:41:41.296Z,12.65
2023-04-29T17:44:09.187Z,14.85
2023-04-29T17:46:37.057Z,12.07
2023-04-29T17:49:06.078Z,13.40
2023-04-29T17:51:36.355Z,12.13
2023-04-29T17:54:06.479Z,11.90
2023-04-29T17:56:35.010Z,13.45
2023-04-29T17:59:02.816Z,12.77
2023-04-29T18:01:30.147Z,13.70
2023-04-29T18:03:57.227Z,13.82
2023-04-29T18:06:24.517Z,13.73
2023-04-29T18:08:52.137Z,13.15
2023-04-29T18:11:19.072Z,15.52
2023-04-29T18:13:45.838Z,13.23
2023-04-29T18:16:12.996Z,14.15
2023-04-29T18:18:39.772Z,13.15
2023-04-29T18:21:07.242Z,13.07
2023-04-29T18:23:34.144Z,13.80
2023-04-29T18:26:00.995Z,13.57
2023-04-29T18:28:29.276Z,13.60
2023-04-29T18:30:57.070Z,13.70
2023-04-29T18:33:25.313Z,13.63
2023-04-29T18:35:52.258Z,15.30
2023-04-29T18:38:19.045Z,14.05
2023-04-29T18:40:45.873Z,14.77
2023-04-29T18:43:17.032Z,14.77
2023-04-29T18:45:47.293Z,15.50
2023-04-29T18:48:15.042Z,14.48
2023-04-29T18:50:42.068Z,14.15
2023-04-29T18:53:08.940Z,15.48
2023-04-29T18:55:37.278Z,15.82
2023-04-29T18:58:04.327Z,14.77
2023-04-29T19:00:31.564Z,15.45
2023-04-29T19:02:58.468Z,16.83
2023-04-29T19:05:26.658Z,15.65
2023-04-29T19:07:53.551Z,16.42
2023-04-29T19:10:21.083Z,17.02
2023-04-29T19:12:48.031Z,17.60
2023-04-29T19:15:15.436Z,16.10
2023-04-29T19:17:42.585Z,17.00
2023-04-29T19:20:12.337Z,17.63
2023-04-29T19:22:39.300Z,15.15
2023-04-29T19:25:07.229Z,17.77
2023-04-29T19:27:36.255Z,15.15
2023-04-29T19:30:07.577Z,17.02
2023-04-29T19:32:34.569Z,15.85
2023-04-29T19:35:01.778Z,16.88
2023-04-29T19:37:33.480Z,16.52
2023-04-29T19:40:00.690Z,17.83
2023-04-29T19:42:27.626Z,16.95
2023-04-29T19:47:38.875Z,17.30
2023-04-29T19:50:06.011Z,17.98
2023-04-29T19:52:33.014Z,20.75
2023-04-29T19:55:20.123Z,19.23
2023-04-29T19:57:49.809Z,18.98
2023-04-29T20:03:01.619Z,18.80
2023-04-29T20:05:34.452Z,17.98
2023-04-29T20:08:10.016Z,17.98
2023-04-29T20:10:37.704Z,16.58
2023-04-29T20:15:45.870Z,18.77
2023-04-29T20:18:12.959Z,17.17
2023-04-29T20:20:39.933Z,18.65
2023-04-29T20:23:07.288Z,17.58
2023-04-29T20:25:36.981Z,16.83
2023-04-29T20:28:12.626Z,18.15
2023-04-29T20:30:45.060Z,17.35
2023-04-29T20:33:12.102Z,17.88
2023-04-29T20:35:43.507Z,18.23
2023-04-29T20:40:55.463Z,16.23
2023-04-29T20:43:31.272Z,17.02
2023-04-29T20:45:59.133Z,17.67
2023-04-29T20:48:26.843Z,17.45
2023-04-29T20:50:53.703Z,16.92
2023-04-29T20:53:20.924Z,17.63
2023-04-29T20:55:47.981Z,17.75
2023-04-29T20:58:16.509Z,17.15
2023-04-29T21:00:43.586Z,17.48
2023-04-29T21:03:10.828Z,17.70
2023-04-29T21:05:37.855Z,18.50
2023-04-29T21:08:05.117Z,18.17
2023-04-29T21:10:32.145Z,17.48
2023-04-29T21:13:06.582Z,17.23
2023-04-29T21:15:33.375Z,18.40
2023-04-29T21:18:00.376Z,16.90
2023-04-29T21:20:27.322Z,17.75
2023-04-29T21:22:54.131Z,17.20
2023-04-29T21:25:21.100Z,19.27
2023-04-29T21:27:47.902Z,17.98
2023-04-29T21:30:14.957Z,18.40
2023-04-29T21:32:41.996Z,18.55
2023-04-29T21:35:09.296Z,20.15
2023-04-29T21:37:36.652Z,19.50
2023-04-29T21:40:04.840Z,17.90
2023-04-29T21:42:32.581Z,18.33
2023-04-29T21:45:03.125Z,17.75
2023-04-29T21:47:31.478Z,19.00
2023-04-29T21:49:58.564Z,19.13
2023-04-29T21:52:25.891Z,17.95
2023-04-29T21:54:53.202Z,18.73
2023-04-29T21:57:26.364Z,19.60
2023-04-29T21:59:59.028Z,19.20
2023-04-29T22:02:27.620Z,18.35
2023-04-29T22:04:54.690Z,18.50
2023-04-29T22:07:26.160Z,20.00
2023-04-29T22:09:53.225Z,20.05
2023-04-29T22:12:20.490Z,18.65
2023-04-29T22:14:47.260Z,19.08
2023-04-29T22:17:14.530Z,19.05
2023-04-29T22:19:41.437Z,19.10
2023-04-29T22:22:08.866Z,20.33
2023-04-29T22:24:35.805Z,19.45
2023-04-29T22:27:03.503Z,19.27
2023-04-29T22:29:30.362Z,20.45
2023-04-29T22:31:57.211Z,19.65
2023-04-29T22:34:23.944Z,20.00
2023-04-29T22:36:50.689Z,20.23
2023-04-29T22:39:17.662Z,19.75
2023-04-29T22:41:44.526Z,21.75
2023-04-29T22:44:11.300Z,19.20
2023-04-29T22:46:38.101Z,19.67
2023-04-29T22:49:04.946Z,19.85
2023-04-29T22:51:32.273Z,19.45
2023-04-29T22:53:59.184Z,18.45
2023-04-29T22:56:26.238Z,19.02
2023-04-29T22:58:53.019Z,19.85
2023-04-29T23:01:19.745Z,19.10
2023-04-29T23:03:46.576Z,18.17
2023-04-29T23:06:13.516Z,17.67
2023-04-29T23:08:40.565Z,18.00
2023-04-29T23:11:07.418Z,20.10
2023-04-29T23:13:34.250Z,20.35
2023-04-29T23:16:01.504Z,18.52
2023-04-29T23:18:28.273Z,20.33
2023-04-29T23:20:56.604Z,20.50
2023-04-29T23:23:23.661Z,19.17
2023-04-29T23:25:50.668Z,19.42
2023-04-29T23:28:17.535Z,18.90
2023-04-29T23:30:47.337Z,19.58
2023-04-29T23:33:14.622Z,20.60
2023-04-29T23:35:41.352Z,20.00
2023-04-29T23:38:08.166Z,20.17
2023-04-29T23:40:34.892Z,18.95
2023-04-29T23:43:01.598Z,20.95
2023-04-29T23:45:28.322Z,20.58
2023-04-29T23:47:55.334Z,19.48
2023-04-29T23:50:22.400Z,20.48
2023-04-29T23:52:49.213Z,18.55
2023-04-29T23:55:16.051Z,19.15
2023-04-29T23:57:42.823Z,19.88
